M I D A S
Marine Information and Data Acquisition System
Tripno 2030 of the Zeeleeuw from 2011-01-13 07:54:20 to 2011-01-13 14:47:15
Back to CruiseResearch ActivitiesStationsMapUnderway DataData graphs

EquipmentUnitsComment
TimeDGPSUTC
LatitudeDGPSDM.mWGS84
LongitudeDGPSDM.mWGS84
HeadingGyrodeg 
SOGDGPSknotsSpeed over ground
COGDGPSdegCourse over ground
DepthEcho soundermeters200 kHz
Missing or incorrect values are displayed as -999
Navigation data collected by the RV Zeeleeuw from 2011-01-13 07:46:14 to 2011-01-13 14:51:57
Time Latitude Longitude Heading SOG COG Depth
2011-01-13 07:47:19 51°13.661 2°55.961 125.9 0.1 259 9.1
2011-01-13 07:48:19 51°13.662 2°55.962 126 0.1 47 -999
2011-01-13 07:49:19 51°13.662 2°55.963 125.3 -999 169 9.1
2011-01-13 07:50:18 51°13.662 2°55.963 125.2 -999 183 9.1
2011-01-13 07:51:20 51°13.662 2°55.962 123.8 0.1 140 9.1
2011-01-13 07:52:19 51°13.662 2°55.963 125.5 0.1 211 9.1
2011-01-13 07:53:19 51°13.662 2°55.963 125.7 -999 355 9.1
2011-01-13 07:54:20 51°13.662 2°55.962 125.7 -999 232 9.2
2011-01-13 07:55:20 51°13.662 2°55.962 125.7 -999 221 9.1
2011-01-13 07:56:20 51°13.662 2°55.962 124.9 -999 17 9
2011-01-13 07:57:19 51°13.662 2°55.962 119.2 -999 198 9.1
2011-01-13 07:58:21 51°13.661 2°55.961 109.6 -999 201 -999
2011-01-13 07:59:21 51°13.678 2°55.902 105.9 4.2 293 -999
2011-01-13 08:00:20 51°13.695 2°55.798 86.7 3.6 277 -999
2011-01-13 08:01:19 51°13.695 2°55.735 58.2 0.5 322 14.8
2011-01-13 08:02:18 51°13.716 2°55.733 356.9 2.6 348 14.2
2011-01-13 08:03:16 51°13.792 2°55.668 328.6 7.7 329 12.1
2011-01-13 08:04:16 51°13.927 2°55.562 334.1 9.8 335 -999
2011-01-13 08:05:17 51°14.081 2°55.448 335.5 10.2 337 11.8
2011-01-13 08:06:21 51°14.247 2°55.328 330.8 10.4 331 -999
2011-01-13 08:07:21 51°14.398 2°55.175 323.6 11.3 327 -999
2011-01-13 08:08:20 51°14.563 2°55.007 321.2 12.2 325 13.1
2011-01-13 08:09:17 51°14.708 2°54.849 318.2 10.9 327 12.5
2011-01-13 08:10:21 51°14.88 2°54.651 315.7 12.4 319 -999
2011-01-13 08:11:19 51°15.044 2°54.458 316.5 12.8 325 12.5
2011-01-13 08:12:18 51°15.207 2°54.255 316.4 12.7 321 12.2
2011-01-13 08:13:17 51°15.371 2°54.055 316.1 12.2 323 -999
2011-01-13 08:14:17 51°15.533 2°53.852 314.7 12.4 321 13.5
2011-01-13 08:15:17 51°15.693 2°53.636 315.4 12.7 320 13.9
2011-01-13 08:16:17 51°15.862 2°53.438 324.5 12.9 330 13.7
2011-01-13 08:17:17 51°16.053 2°53.281 328.5 13.1 334 13.9
2011-01-13 08:18:17 51°16.247 2°53.132 328.2 12.9 334 12.6
2011-01-13 08:19:17 51°16.44 2°52.986 328.8 12.7 334 14.3
2011-01-13 08:20:17 51°16.632 2°52.836 328.8 13 335 13.1
2011-01-13 08:21:18 51°16.826 2°52.678 326.4 12.8 333 11
2011-01-13 08:22:16 51°17.014 2°52.534 333.7 13.3 341 11.6
2011-01-13 08:23:16 51°17.218 2°52.416 335.9 13.3 341 12.2
2011-01-13 08:24:16 51°17.432 2°52.328 341.9 13.3 347 11.9
2011-01-13 08:25:17 51°17.652 2°52.254 345.2 13.5 350 12.4
2011-01-13 08:26:17 51°17.869 2°52.185 349.9 13.6 352 13.2
2011-01-13 08:27:16 51°18.09 2°52.193 359.2 13.9 359 12.9
2011-01-13 08:28:16 51°18.314 2°52.231 6.3 13.7 7 13.8
2011-01-13 08:29:17 51°18.543 2°52.26 359.7 13.6 3 13.4
2011-01-13 08:30:17 51°18.769 2°52.288 1.1 13.9 3 13.6
2011-01-13 08:31:17 51°18.997 2°52.32 3.5 13.9 4 14.3
2011-01-13 08:32:16 51°19.218 2°52.341 358.3 13.7 -999 15.3
2011-01-13 08:33:17 51°19.448 2°52.331 356.5 14 1 17.1
2011-01-13 08:34:16 51°19.67 2°52.323 359.2 13.8 -999 17.4
2011-01-13 08:35:17 51°19.895 2°52.302 350.7 13.2 355 18.3
2011-01-13 08:36:16 51°20.114 2°52.286 350.2 13.2 351 17.7
2011-01-13 08:37:17 51°20.337 2°52.255 347.4 12.5 352 17.1
2011-01-13 08:38:17 51°20.531 2°52.185 330.5 11.5 336 16.3
2011-01-13 08:39:17 51°20.692 2°52.025 320.1 11.5 326 15.4
2011-01-13 08:40:17 51°20.851 2°51.848 320 11.8 328 16.5
2011-01-13 08:41:17 51°21.015 2°51.674 321.2 11.3 329 -999
2011-01-13 08:42:17 51°21.177 2°51.51 320.4 11.7 329 21.3
2011-01-13 08:43:17 51°21.342 2°51.35 320.2 11.9 325 24.3
2011-01-13 08:44:17 51°21.509 2°51.185 322 11.6 328 26
2011-01-13 08:45:17 51°21.689 2°51.055 333.2 11.9 341 26.4
2011-01-13 08:46:17 51°21.881 2°50.948 334.7 12.2 335 24.9
2011-01-13 08:47:17 51°22.069 2°50.826 331.8 12.1 332 24.1
2011-01-13 08:48:17 51°22.246 2°50.673 321.7 11.8 332 26.1
2011-01-13 08:49:17 51°22.389 2°50.478 304.1 10.9 312 25.4
2011-01-13 08:50:17 51°22.495 2°50.232 295.3 11.1 303 -999
2011-01-13 08:51:16 51°22.597 2°49.975 296.9 11.9 304 21
2011-01-13 08:52:19 51°22.714 2°49.718 301 10.1 307 -999
2011-01-13 08:53:19 51°22.824 2°49.468 298.5 12.2 306 16.9
2011-01-13 08:54:20 51°22.936 2°49.214 298.5 11.9 304 16.9
2011-01-13 08:55:20 51°23.05 2°48.964 300.9 11.3 306 22
2011-01-13 08:56:20 51°23.161 2°48.707 298.1 11.3 303 -999
2011-01-13 08:57:20 51°23.273 2°48.453 297.6 11.6 306 21
2011-01-13 08:58:20 51°23.38 2°48.204 298.3 11.5 303 23.6
2011-01-13 08:59:18 51°23.492 2°47.953 300.1 11.8 306 22.2
2011-01-13 09:00:18 51°23.604 2°47.701 297.5 11.6 305 22
2011-01-13 09:01:18 51°23.712 2°47.446 297.1 12 303 24.9
2011-01-13 09:02:17 51°23.807 2°47.177 292.9 11.7 298 25.3
2011-01-13 09:03:17 51°23.897 2°46.904 292.1 11.7 298 27.8
2011-01-13 09:04:19 51°23.992 2°46.628 293.3 11 296 29.7
2011-01-13 09:05:19 51°24.079 2°46.364 292.5 11.9 296 30.9
2011-01-13 09:06:17 51°24.173 2°46.094 294.3 11.7 299 30.1
2011-01-13 09:07:16 51°24.264 2°45.822 294.4 12.1 300 27.7
2011-01-13 09:08:18 51°24.354 2°45.535 285.6 11 290 27.9
2011-01-13 09:09:18 51°24.403 2°45.261 277.7 10.6 280 27.1
2011-01-13 09:10:20 51°24.428 2°44.973 273.7 10.3 278 28
2011-01-13 09:11:19 51°24.453 2°44.715 273.8 8.5 280 28.8
2011-01-13 09:12:17 51°24.475 2°44.554 274 5.5 284 28.3
2011-01-13 09:13:17 51°24.501 2°44.414 273.6 5.3 283 27
2011-01-13 09:14:16 51°24.524 2°44.26 274.3 6.4 286 25.5
2011-01-13 09:15:17 51°24.55 2°44.117 274.2 5.9 287 24.3
2011-01-13 09:16:16 51°24.573 2°43.957 274.8 6.6 283 25.8
2011-01-13 09:17:17 51°24.601 2°43.825 276.5 3.1 299 25.9
2011-01-13 09:18:16 51°24.626 2°43.766 274.4 3.2 293 26.7
2011-01-13 09:19:17 51°24.648 2°43.712 276.5 1.6 327 25.1
2011-01-13 09:20:16 51°24.671 2°43.725 300.5 1.8 27 23.1
2011-01-13 09:21:16 51°24.69 2°43.756 331.8 1.5 43 23
2011-01-13 09:22:16 51°24.706 2°43.787 345.2 1.6 50 24.6
2011-01-13 09:23:16 51°24.725 2°43.816 345.6 2 35 25.5
2011-01-13 09:24:17 51°24.762 2°43.81 305.7 2.2 326 25.2
2011-01-13 09:25:17 51°24.787 2°43.761 255.9 2.2 272 25.4
2011-01-13 09:26:17 51°24.764 2°43.718 214.2 3 210 21.1
2011-01-13 09:27:16 51°24.721 2°43.677 215.3 2.5 208 24.5
2011-01-13 09:28:17 51°24.698 2°43.659 216.9 1.2 207 21.4
2011-01-13 09:29:16 51°24.681 2°43.653 212.3 1.2 187 23.2
2011-01-13 09:30:17 51°24.664 2°43.648 212.3 0.6 139 23.9
2011-01-13 09:31:17 51°24.664 2°43.667 195.2 0.9 58 22.9
2011-01-13 09:32:16 51°24.673 2°43.697 164.8 1.5 60 23.9
2011-01-13 09:33:17 51°24.687 2°43.726 146.7 1.5 50 24.2
2011-01-13 09:34:16 51°24.702 2°43.752 138.5 1.6 45 23.6
2011-01-13 09:35:16 51°24.718 2°43.778 137.9 1.4 45 23.7
2011-01-13 09:36:16 51°24.732 2°43.803 144 1.3 68 25.1
2011-01-13 09:37:17 51°24.721 2°43.838 170.5 2 147 26
2011-01-13 09:38:17 51°24.687 2°43.838 214.9 2.2 211 25.3
2011-01-13 09:39:16 51°24.673 2°43.796 234.8 2 234 23.6
2011-01-13 09:40:16 51°24.642 2°43.777 210.3 2.3 210 25.1
2011-01-13 09:41:16 51°24.633 2°43.75 262.2 1 316 26.5
2011-01-13 09:42:17 51°24.654 2°43.729 283.6 1.5 336 26.4
2011-01-13 09:43:16 51°24.676 2°43.723 283.6 1.4 21 21.8
2011-01-13 09:44:17 51°24.697 2°43.748 313 1.4 50 24.2
2011-01-13 09:45:16 51°24.715 2°43.774 336.1 1.7 49 23.5
2011-01-13 09:46:16 51°24.73 2°43.801 345.6 1.3 49 26.2
2011-01-13 09:47:16 51°24.756 2°43.817 325.8 3 348 25.4
2011-01-13 09:48:17 51°24.787 2°43.752 258.2 3.7 269 24.2
2011-01-13 09:49:17 51°24.738 2°43.717 189.4 4.5 192 23.9
2011-01-13 09:50:17 51°24.698 2°43.679 219.9 2.3 220 24.8
2011-01-13 09:51:17 51°24.661 2°43.658 189.3 1.8 168 22.9
2011-01-13 09:52:16 51°24.65 2°43.679 182.8 1.1 90 22.6
2011-01-13 09:53:17 51°24.666 2°43.709 154.9 1.4 54 24.2
2011-01-13 09:54:16 51°24.68 2°43.737 138.6 1.4 51 23.6
2011-01-13 09:55:17 51°24.693 2°43.763 141.5 1.1 48 21.6
2011-01-13 09:56:16 51°24.706 2°43.789 147.8 1.6 49 24.7
2011-01-13 09:57:16 51°24.72 2°43.813 153.6 0.9 51 25.7
2011-01-13 09:58:17 51°24.717 2°43.846 169.1 1.3 133 25.1
2011-01-13 09:59:17 51°24.687 2°43.859 202.4 1.7 180 25.6
2011-01-13 10:00:17 51°24.664 2°43.808 241.9 2.4 249 24.9
2011-01-13 10:01:16 51°24.642 2°43.778 216.3 1.4 218 24.9
2011-01-13 10:02:17 51°24.631 2°43.746 259.9 1.8 276 26.7
2011-01-13 10:03:17 51°24.655 2°43.724 292.6 2.2 336 25.5
2011-01-13 10:04:17 51°24.679 2°43.725 297.4 1.7 36 24.1
2011-01-13 10:05:16 51°24.698 2°43.749 327.1 1.4 41 23.4
2011-01-13 10:06:17 51°24.714 2°43.779 347.1 1.1 44 23.8
2011-01-13 10:07:16 51°24.728 2°43.805 348.1 1.5 47 25.5
2011-01-13 10:08:16 51°24.746 2°43.83 342.5 1.4 33 24.1
2011-01-13 10:09:16 51°24.761 2°43.856 341.9 1.1 19 22.7
2011-01-13 10:10:16 51°24.793 2°43.869 341.2 3.2 1 23.8
2011-01-13 10:11:16 51°24.887 2°43.89 25.1 7.4 24 20.6
2011-01-13 10:12:16 51°25.016 2°44.018 28.8 10.7 30 22.3
2011-01-13 10:13:16 51°25.168 2°44.215 46.3 12.6 48 23.6
2011-01-13 10:14:16 51°25.329 2°44.452 46.7 12.9 46 25
2011-01-13 10:15:17 51°25.494 2°44.696 45.5 13.3 44 -999
2011-01-13 10:16:16 51°25.639 2°44.945 43.4 12.8 43 23.7
2011-01-13 10:17:16 51°25.799 2°45.187 43.3 12.9 47 25.1
2011-01-13 10:18:17 51°25.972 2°45.412 36.8 13.4 34 26.7
2011-01-13 10:19:16 51°26.134 2°45.64 40.8 13.3 43 26.1
2011-01-13 10:20:16 51°26.301 2°45.869 41.5 12.9 35 27.5
2011-01-13 10:21:16 51°26.467 2°46.106 41.9 13.8 38 28.4
2011-01-13 10:22:16 51°26.641 2°46.326 32.4 13.7 26 30.1
2011-01-13 10:23:16 51°26.838 2°46.486 22.6 13.5 16 28.9
2011-01-13 10:24:16 51°27.031 2°46.654 30.3 12.8 34 30.8
2011-01-13 10:25:16 51°27.221 2°46.838 27.6 13.7 26 30.6
2011-01-13 10:26:16 51°27.407 2°47.027 33.2 13.9 31 30.6
2011-01-13 10:27:16 51°27.605 2°47.194 30.8 13.9 34 31.6
2011-01-13 10:28:16 51°27.807 2°47.338 23.2 13.4 26 31.4
2011-01-13 10:29:17 51°28.005 2°47.507 32.3 13.3 33 32.5
2011-01-13 10:30:16 51°28.186 2°47.687 40.6 12.7 39 32.1
2011-01-13 10:31:16 51°28.336 2°47.945 49.4 13.6 48 32.7
2011-01-13 10:32:16 51°28.489 2°48.198 42.6 13.2 42 31.6
2011-01-13 10:33:16 51°28.652 2°48.437 40.5 13.7 39 32.7
2011-01-13 10:34:17 51°28.821 2°48.674 42.5 13.6 35 29.8
2011-01-13 10:35:16 51°28.986 2°48.906 43.6 13.4 46 28.3
2011-01-13 10:36:16 51°29.139 2°49.159 50 12.4 50 27.5
2011-01-13 10:37:16 51°29.295 2°49.417 44 13.1 47 27.6
2011-01-13 10:38:16 51°29.454 2°49.667 44.1 13.2 45 28.7
2011-01-13 10:39:16 51°29.609 2°49.923 48.2 13.6 45 29.5
2011-01-13 10:40:16 51°29.777 2°50.157 37 12.9 44 28
2011-01-13 10:41:16 51°29.929 2°50.412 48 12.9 47 27.4
2011-01-13 10:42:16 51°30.079 2°50.667 41.4 13.5 40 25.8
2011-01-13 10:43:16 51°30.245 2°50.905 41.6 13.6 41 22.4
2011-01-13 10:44:16 51°30.414 2°51.101 40.8 10.2 39 23.5
2011-01-13 10:45:16 51°30.497 2°51.253 54.6 6.4 53 19.6
2011-01-13 10:46:16 51°30.555 2°51.373 52.3 5.5 56 19
2011-01-13 10:47:16 51°30.605 2°51.456 42.2 3.1 36 20.2
2011-01-13 10:48:16 51°30.624 2°51.48 358.4 1.2 59 21.9
2011-01-13 10:49:16 51°30.636 2°51.502 342.7 1.1 41 22
2011-01-13 10:50:16 51°30.648 2°51.523 336.6 0.9 42 22.2
2011-01-13 10:51:16 51°30.665 2°51.544 334.6 0.9 18 21.8
2011-01-13 10:52:16 51°30.682 2°51.564 335.2 0.9 30 19.8
2011-01-13 10:53:16 51°30.698 2°51.583 332.1 0.8 21 20.8
2011-01-13 10:54:16 51°30.716 2°51.602 328.2 1.6 40 22.5
2011-01-13 10:55:16 51°30.735 2°51.62 329.1 1.5 36 21.3
2011-01-13 10:56:16 51°30.755 2°51.639 329.9 1.3 31 21.2
2011-01-13 10:57:16 51°30.773 2°51.658 331.1 1.5 39 21.1
2011-01-13 10:58:16 51°30.789 2°51.679 331.6 1.6 44 20.5
2011-01-13 10:59:16 51°30.805 2°51.699 335.4 1.7 54 22.6
2011-01-13 11:00:16 51°30.822 2°51.721 337.3 1.3 36 21.4
2011-01-13 11:01:16 51°30.837 2°51.74 334.8 1.1 37 22.5
2011-01-13 11:02:16 51°30.852 2°51.76 334.4 1 44 21.9
2011-01-13 11:03:17 51°30.865 2°51.783 335.8 1.1 41 21.5
2011-01-13 11:04:16 51°30.878 2°51.804 336.8 1.1 40 19.5
2011-01-13 11:05:16 51°30.893 2°51.826 338.2 0.8 26 20.7
2011-01-13 11:06:16 51°30.908 2°51.847 336.9 1.2 41 21.5
2011-01-13 11:07:16 51°30.921 2°51.868 336.1 1.1 49 21.3
2011-01-13 11:08:16 51°30.934 2°51.891 334.6 1.3 52 21.3
2011-01-13 11:09:16 51°30.947 2°51.913 338.7 1 44 19.7
2011-01-13 11:10:16 51°30.962 2°51.935 337.7 1.3 41 22
2011-01-13 11:11:16 51°30.977 2°51.953 334.4 1.5 43 22.9
2011-01-13 11:12:16 51°30.993 2°51.97 333 1.5 40 23.4
2011-01-13 11:13:16 51°31.01 2°51.988 329.6 1.8 47 24.3
2011-01-13 11:14:16 51°31.025 2°52.005 327.4 0.9 32 22.8
2011-01-13 11:15:16 51°31.041 2°52.022 325.2 0.9 22 22.3
2011-01-13 11:16:16 51°31.056 2°52.04 329.1 1.6 43 21.1
2011-01-13 11:17:16 51°31.07 2°52.06 337.3 1.8 57 19.5
2011-01-13 11:18:16 51°31.082 2°52.08 334.7 0.7 37 22.3
2011-01-13 11:19:16 51°31.094 2°52.097 332.6 0.9 37 20.9
2011-01-13 11:20:16 51°31.107 2°52.118 333.1 0.7 32 21.4
2011-01-13 11:21:16 51°31.119 2°52.14 332.9 0.9 52 23
2011-01-13 11:22:16 51°31.13 2°52.158 334.5 0.8 46 22.9
2011-01-13 11:23:16 51°31.143 2°52.178 334.6 0.9 40 22.8
2011-01-13 11:24:16 51°31.156 2°52.196 334 0.9 36 22.4
2011-01-13 11:25:16 51°31.169 2°52.215 331.8 0.9 32 22.1
2011-01-13 11:26:16 51°31.184 2°52.232 323 1.3 40 21
2011-01-13 11:27:16 51°31.196 2°52.249 325.8 0.9 45 20.8
2011-01-13 11:28:16 51°31.207 2°52.273 332.7 1.5 60 20.1
2011-01-13 11:29:16 51°31.216 2°52.297 336.6 1.3 60 21.7
2011-01-13 11:30:16 51°31.226 2°52.319 338.3 0.9 49 22.6
2011-01-13 11:31:16 51°31.236 2°52.339 332.7 0.4 17 21.9
2011-01-13 11:32:16 51°31.248 2°52.361 333.1 0.6 30 21.3
2011-01-13 11:33:16 51°31.264 2°52.376 332.1 1.1 358 19.8
2011-01-13 11:34:16 51°31.29 2°52.376 328 2.1 348 21.9
2011-01-13 11:35:16 51°31.332 2°52.359 328.2 3 338 22.2
2011-01-13 11:36:16 51°31.384 2°52.327 327.3 3.7 335 20.4
2011-01-13 11:37:16 51°31.447 2°52.286 329.9 4.5 338 22.5
2011-01-13 11:38:16 51°31.517 2°52.244 333.2 4.6 338 19.2
2011-01-13 11:39:16 51°31.589 2°52.203 332.3 4.8 341 24.9
2011-01-13 11:40:16 51°31.663 2°52.162 331.1 4.7 333 24.3
2011-01-13 11:41:16 51°31.731 2°52.111 323.7 4.4 335 24.4
2011-01-13 11:42:16 51°31.783 2°52.084 323.1 2 339 25.3
2011-01-13 11:43:16 51°31.797 2°52.093 317.7 1.4 78 25.7
2011-01-13 11:44:19 51°31.794 2°52.123 344.9 0.5 81 24.3
2011-01-13 11:45:17 51°31.798 2°52.143 348.2 1 64 24
2011-01-13 11:46:16 51°31.804 2°52.16 335.3 0.7 49 21.9
2011-01-13 11:47:16 51°31.812 2°52.183 330.3 0.9 68 24.6
2011-01-13 11:48:16 51°31.822 2°52.202 325.8 1.2 26 26.4
2011-01-13 11:49:16 51°31.841 2°52.198 302.6 1 317 24.5
2011-01-13 11:50:16 51°31.859 2°52.187 292.3 1.1 332 23.6
2011-01-13 11:51:16 51°31.876 2°52.175 286.5 1.1 349 23.8
2011-01-13 11:52:16 51°31.893 2°52.168 287.1 1.2 331 25.5
2011-01-13 11:53:16 51°31.91 2°52.148 278.2 1.4 322 26
2011-01-13 11:54:16 51°31.925 2°52.126 267.3 1.2 313 26.8
2011-01-13 11:55:16 51°31.936 2°52.104 252.7 0.7 290 26.6
2011-01-13 11:56:16 51°31.936 2°52.085 220.2 0.6 228 25.2
2011-01-13 11:57:16 51°31.919 2°52.096 172.1 1.7 145 24.4
2011-01-13 11:58:16 51°31.889 2°52.114 189.5 2 173 24.5
2011-01-13 11:59:16 51°31.855 2°52.099 217.8 2.5 211 26.8
2011-01-13 12:00:16 51°31.82 2°52.039 228.7 3.4 227 26.3
2011-01-13 12:01:16 51°31.778 2°52.039 149.1 2.8 139 26.2
2011-01-13 12:02:16 51°31.765 2°52.077 136.7 1.4 32 25.8
2011-01-13 12:03:16 51°31.776 2°52.089 120 0.9 45 25.7
2011-01-13 12:04:16 51°31.785 2°52.109 119.9 0.8 54 24.8
2011-01-13 12:05:16 51°31.79 2°52.128 129.7 0.6 68 24.6
2011-01-13 12:06:16 51°31.795 2°52.147 134.6 0.5 80 24.4
2011-01-13 12:07:16 51°31.8 2°52.168 135.8 1 112 21.9
2011-01-13 12:08:16 51°31.761 2°52.237 141.6 6 141 21.2
2011-01-13 12:09:16 51°31.669 2°52.368 137.9 8.1 134 20.7
2011-01-13 12:10:16 51°31.565 2°52.513 137.8 8.5 139 22.3
2011-01-13 12:11:16 51°31.455 2°52.666 138.1 9.2 142 21.7
2011-01-13 12:12:16 51°31.334 2°52.828 139.4 9.7 144 21.3
2011-01-13 12:13:16 51°31.221 2°53.019 128.8 9.8 130 19.9
2011-01-13 12:14:16 51°31.131 2°53.238 122.2 9.8 128 19.2
2011-01-13 12:15:16 51°31.035 2°53.453 123.9 9.8 128 19.9
2011-01-13 12:16:16 51°30.93 2°53.66 127.3 10.1 132 19.4
2011-01-13 12:17:16 51°30.857 2°53.892 102.4 9.9 107 16.3
2011-01-13 12:18:16 51°30.834 2°54.156 92.3 9.9 89 13.7
2011-01-13 12:19:16 51°30.822 2°54.366 97.8 5.9 100 13.9
2011-01-13 12:20:16 51°30.802 2°54.485 103.9 3.9 104 17
2011-01-13 12:21:16 51°30.789 2°54.577 105.6 3.4 104 21.2
2011-01-13 12:22:16 51°30.764 2°54.663 121.1 3.7 124 26.6
2011-01-13 12:23:16 51°30.721 2°54.739 146 4 142 31.2
2011-01-13 12:24:16 51°30.664 2°54.788 156.6 3.8 153 33.7
2011-01-13 12:25:16 51°30.607 2°54.827 157.1 3.6 151 36
2011-01-13 12:26:16 51°30.556 2°54.875 147.4 3.4 146 35.5
2011-01-13 12:27:16 51°30.508 2°54.932 146.7 3.6 144 35.8
2011-01-13 12:28:16 51°30.459 2°54.987 143.2 3.6 142 36.3
2011-01-13 12:29:16 51°30.414 2°55.054 136 3.8 142 35.7
2011-01-13 12:30:16 51°30.369 2°55.12 137.5 3.5 143 36.1
2011-01-13 12:31:16 51°30.326 2°55.181 139.3 3.4 131 36.7
2011-01-13 12:32:16 51°30.29 2°55.251 122.4 3.5 119 35.3
2011-01-13 12:33:16 51°30.269 2°55.337 107.4 3.7 105 34.5
2011-01-13 12:34:16 51°30.26 2°55.43 94 3.7 94 33.6
2011-01-13 12:35:16 51°30.263 2°55.527 85.7 3.7 81 33.3
2011-01-13 12:36:16 51°30.264 2°55.625 87.9 3.6 89 32
2011-01-13 12:37:16 51°30.267 2°55.721 81.3 3.6 80 32.3
2011-01-13 12:38:16 51°30.281 2°55.815 73.5 3.6 72 31.5
2011-01-13 12:39:16 51°30.296 2°55.907 73.5 3.6 75 31.5
2011-01-13 12:40:16 51°30.311 2°56.001 75.2 3.7 76 31.9
2011-01-13 12:41:16 51°30.325 2°56.098 75.3 3.7 81 32
2011-01-13 12:42:16 51°30.338 2°56.195 75.4 3.8 78 32.1
2011-01-13 12:43:16 51°30.353 2°56.292 73.7 3.7 76 31.4
2011-01-13 12:44:16 51°30.369 2°56.387 75.3 3.6 77 30.9
2011-01-13 12:45:16 51°30.382 2°56.484 74.4 3.7 77 30.7
2011-01-13 12:46:16 51°30.396 2°56.58 76 3.8 78 30.3
2011-01-13 12:47:16 51°30.408 2°56.678 75.1 3.8 78 30.7
2011-01-13 12:48:16 51°30.422 2°56.773 75.6 3.7 78 30.6
2011-01-13 12:49:16 51°30.436 2°56.869 74.4 3.8 76 30.3
2011-01-13 12:50:16 51°30.451 2°56.964 75 3.8 78 31.1
2011-01-13 12:51:16 51°30.465 2°57.06 75.3 3.7 76 30.4
2011-01-13 12:52:16 51°30.479 2°57.158 74.9 3.7 74 30.3
2011-01-13 12:53:16 51°30.494 2°57.255 74.5 3.8 74 30.1
2011-01-13 12:54:16 51°30.509 2°57.353 75.7 3.8 80 29.6
2011-01-13 12:55:16 51°30.522 2°57.45 75.4 3.8 80 29.2
2011-01-13 12:56:16 51°30.523 2°57.548 96.2 3.6 102 29.1
2011-01-13 12:57:16 51°30.504 2°57.637 115.5 3.5 112 29.1
2011-01-13 12:58:16 51°30.469 2°57.714 128.3 3.6 130 28.5
2011-01-13 12:59:16 51°30.426 2°57.782 133.1 3.5 133 28.6
2011-01-13 13:00:16 51°30.384 2°57.846 140.7 3.4 139 29.2
2011-01-13 13:01:16 51°30.339 2°57.898 146.2 3.3 147 29
2011-01-13 13:02:16 51°30.291 2°57.942 153.5 3.2 150 29.3
2011-01-13 13:03:16 51°30.24 2°57.974 160.5 3.1 157 28.4
2011-01-13 13:04:16 51°30.188 2°57.998 167 3.2 169 28.3
2011-01-13 13:05:16 51°30.136 2°58.019 166.5 3.3 174 27.5
2011-01-13 13:06:16 51°30.087 2°58.036 177.2 3.2 176 27.9
2011-01-13 13:07:16 51°30.04 2°58.04 182.7 2.2 167 27.5
2011-01-13 13:08:16 51°30.016 2°58.046 183.4 1.1 151 26.5
2011-01-13 13:09:16 51°30.009 2°58.059 171.3 0.6 112 26.6
2011-01-13 13:10:16 51°30.009 2°58.074 150.1 0.5 72 26.6
2011-01-13 13:11:16 51°30.011 2°58.086 137.3 0.2 72 26.2
2011-01-13 13:12:16 51°30.015 2°58.097 128.6 0.3 84 26.4
2011-01-13 13:13:16 51°30.018 2°58.11 130.5 0.5 83 26.6
2011-01-13 13:14:16 51°29.991 2°58.144 155.8 4.4 159 25.8
2011-01-13 13:15:16 51°29.9 2°58.098 216.3 7.1 215 25.9
2011-01-13 13:16:16 51°29.757 2°58.026 186.8 10.4 188 25
2011-01-13 13:17:16 51°29.568 2°57.996 182.8 12.3 184 22.9
2011-01-13 13:18:16 51°29.37 2°57.974 183 9.9 185 26.3
2011-01-13 13:19:16 51°29.241 2°57.96 182.8 6.9 184 25.5
2011-01-13 13:20:16 51°29.131 2°57.945 184.4 6.5 185 26.7
2011-01-13 13:21:16 51°29.002 2°57.927 184.6 9.4 184 27.7
2011-01-13 13:22:16 51°28.821 2°57.891 184.6 12 188 29.2
2011-01-13 13:23:16 51°28.62 2°57.846 185.9 12.3 190 30.4
2011-01-13 13:24:16 51°28.419 2°57.781 189.8 12.4 192 30.3
2011-01-13 13:25:16 51°28.218 2°57.712 190 12.1 191 30.9
2011-01-13 13:26:16 51°28.015 2°57.644 190.5 12.5 192 30.3
2011-01-13 13:27:16 51°27.818 2°57.581 189.5 12.4 192 28.1
2011-01-13 13:28:16 51°27.617 2°57.521 188.8 12.2 192 27.6
2011-01-13 13:29:16 51°27.418 2°57.461 188 12.1 190 26.5
2011-01-13 13:30:16 51°27.227 2°57.404 190.2 11.2 191 25
2011-01-13 13:31:16 51°27.052 2°57.348 189.8 10.3 190 22.6
2011-01-13 13:32:16 51°26.887 2°57.283 197.7 10.2 200 20.3
2011-01-13 13:33:16 51°26.727 2°57.174 204.1 10.7 205 18.5
2011-01-13 13:34:16 51°26.568 2°57.052 204.4 10.6 206 18.9
2011-01-13 13:35:17 51°26.408 2°56.946 201.1 10 202 17.1
2011-01-13 13:36:16 51°26.251 2°56.842 201.9 10.9 203 17.5
2011-01-13 13:37:16 51°26.075 2°56.719 202.6 11.7 204 17.9
2011-01-13 13:38:16 51°25.898 2°56.595 203.6 11.5 204 17.9
2011-01-13 13:39:16 51°25.722 2°56.478 201.9 11.5 203 16.6
2011-01-13 13:40:16 51°25.547 2°56.364 201.7 11.3 201 18.3
2011-01-13 13:41:16 51°25.371 2°56.247 200.4 11.8 200 21.2
2011-01-13 13:42:16 51°25.191 2°56.138 199.7 11.8 202 22.9
2011-01-13 13:43:16 51°25.012 2°56.027 199 11.4 202 24.6
2011-01-13 13:44:16 51°24.835 2°55.922 200.1 11.6 197 25.8
2011-01-13 13:45:16 51°24.661 2°55.822 197.5 11.4 199 23.8
2011-01-13 13:46:16 51°24.481 2°55.716 199.2 11.7 199 24.9
2011-01-13 13:47:16 51°24.298 2°55.607 199.9 11.6 198 23.8
2011-01-13 13:48:17 51°24.118 2°55.504 199 11.1 199 21.4
2011-01-13 13:49:16 51°23.942 2°55.402 199.7 11.6 202 20.5
2011-01-13 13:50:16 51°23.76 2°55.292 199.4 11.6 201 20.5
2011-01-13 13:51:16 51°23.577 2°55.183 198.6 11.8 199 18.9
2011-01-13 13:52:16 51°23.391 2°55.098 193.7 11.8 195 17.7
2011-01-13 13:53:16 51°23.2 2°55.024 191.3 11.8 193 20.3
2011-01-13 13:54:16 51°23.012 2°54.952 191.1 11.7 194 20.2
2011-01-13 13:55:16 51°22.823 2°54.878 193 11.7 193 19.8
2011-01-13 13:56:16 51°22.635 2°54.809 193.4 11.4 196 20.3
2011-01-13 13:57:16 51°22.447 2°54.741 192.7 11.7 194 19.6
2011-01-13 13:58:16 51°22.259 2°54.663 192.6 11.9 194 18.6
2011-01-13 13:59:16 51°22.068 2°54.589 191.8 11.5 190 19.9
2011-01-13 14:00:16 51°21.879 2°54.515 191.8 11.7 194 17.8
2011-01-13 14:01:16 51°21.695 2°54.425 197.5 11.6 199 17.4
2011-01-13 14:02:16 51°21.513 2°54.326 197.3 11.3 198 17.3
2011-01-13 14:03:16 51°21.332 2°54.228 197.2 11.6 200 17.4
2011-01-13 14:04:16 51°21.148 2°54.126 196.5 11.7 196 16.8
2011-01-13 14:05:16 51°20.966 2°54.03 197.7 11.6 200 17.3
2011-01-13 14:06:16 51°20.784 2°53.93 197.1 11.5 199 17.1
2011-01-13 14:07:16 51°20.604 2°53.835 198.2 11.6 199 16.7
2011-01-13 14:08:16 51°20.419 2°53.731 197.9 11.7 199 15.9
2011-01-13 14:09:16 51°20.234 2°53.633 198 11.4 199 16.1
2011-01-13 14:10:16 51°20.051 2°53.533 200.6 11.6 202 16.2
2011-01-13 14:11:16 51°19.87 2°53.418 200.5 11.5 200 15.5
2011-01-13 14:12:16 51°19.693 2°53.312 200.1 11.4 199 15.8
2011-01-13 14:13:16 51°19.515 2°53.204 200.8 11.5 201 14.1
2011-01-13 14:14:16 51°19.335 2°53.096 200.3 11.5 202 13.9
2011-01-13 14:15:16 51°19.155 2°52.985 201.1 11.6 202 13.2
2011-01-13 14:16:16 51°18.972 2°52.875 199.5 11.6 199 12.6
2011-01-13 14:17:16 51°18.787 2°52.789 195.3 11.7 196 12.3
2011-01-13 14:18:16 51°18.599 2°52.711 193.8 11.8 194 12.3
2011-01-13 14:19:16 51°18.413 2°52.629 196.1 11.6 197 11.6
2011-01-13 14:20:16 51°18.226 2°52.548 194.2 11.7 195 11.9
2011-01-13 14:21:16 51°18.038 2°52.469 194.4 11.7 193 10.8
2011-01-13 14:22:16 51°17.846 2°52.409 190.4 11.6 191 11.6
2011-01-13 14:23:16 51°17.655 2°52.366 184.5 11.7 186 11
2011-01-13 14:24:16 51°17.46 2°52.338 185.9 11.9 184 11.3
2011-01-13 14:25:16 51°17.265 2°52.311 184.5 11.8 186 11.1
2011-01-13 14:26:16 51°17.071 2°52.333 166.3 11.7 165 10.6
2011-01-13 14:27:16 51°16.899 2°52.489 143.8 12 139 10.5
2011-01-13 14:28:16 51°16.727 2°52.651 155.3 11.9 151 11
2011-01-13 14:29:16 51°16.546 2°52.788 151.1 12 154 12.6
2011-01-13 14:30:16 51°16.374 2°52.945 153 11.7 150 12.4
2011-01-13 14:31:16 51°16.202 2°53.101 149.9 11.9 150 12.8
2011-01-13 14:32:16 51°16.031 2°53.26 148.9 11.8 148 12.1
2011-01-13 14:33:16 51°15.858 2°53.415 148 12 151 12.2
2011-01-13 14:34:16 51°15.695 2°53.593 145.6 11.8 149 11.9
2011-01-13 14:35:16 51°15.534 2°53.779 140.1 12.2 138 13
2011-01-13 14:36:16 51°15.377 2°53.963 144 11.9 143 11.7
2011-01-13 14:37:16 51°15.228 2°54.165 139.8 11.4 139 11.6
2011-01-13 14:38:16 51°15.088 2°54.378 141 11.2 143 11.8
2011-01-13 14:39:16 51°14.943 2°54.555 143.4 10.8 141 11.1
2011-01-13 14:40:16 51°14.795 2°54.722 146.6 10.7 145 11.9
2011-01-13 14:41:16 51°14.649 2°54.885 145.5 10.8 142 12.3
2011-01-13 14:42:16 51°14.5 2°55.037 151.8 10.5 150 11.9
2011-01-13 14:43:19 51°14.341 2°55.202 142.4 10.7 141 -999
2011-01-13 14:44:20 51°14.205 2°55.347 144.7 9.2 148 -999
2011-01-13 14:45:20 51°14.09 2°55.445 153.2 6.9 154 -999
2011-01-13 14:46:20 51°13.995 2°55.523 152.6 6.2 154 -999
2011-01-13 14:47:20 51°13.901 2°55.589 154 6.2 156 -999
2011-01-13 14:48:19 51°13.808 2°55.653 154.8 6.1 154 11
2011-01-13 14:49:19 51°13.74 2°55.748 124.9 4.8 126 10.9
2011-01-13 14:50:17 51°13.698 2°55.842 120.9 4.4 122 10.6
2011-01-13 14:51:16 51°13.668 2°55.931 111.9 3.4 110 8.4